METAR Data
IDs: Format: Raw Decoded Include TAF

Data at: 0118 UTC 06 Dec 2019

METAR for:KNYG (Quantico (MCAF), VA, US)
Text:KNYG 060056Z 30003KT 10SM CLR 03/M03 A3014 RMK AO2 SLP206 T00281028 $
Temperature: 2.8°C ( 37°F)
Dewpoint: -2.8°C ( 27°F) [RH = 67%]
Pressure (altimeter):30.14 inches Hg (1020.7 mb) [Sea level pressure: 1020.6 mb]
Winds:from the WNW (300 degrees) at 3 MPH (3 knots; 1.5 m/s)
Visibility:10 or more sm (16+ km)
Ceiling:at least 12,000 feet AGL
Clouds:sky clear below 12,000 feet AGL
QC Flag:SOME DATA ABOVE MAY BE INACCURATE!!!"$" is an indication the sensor requires maintenance.